createdAt,value
2023-06-06T00:00:05.272Z,17.71
2023-06-06T00:01:05.195Z,17.57
2023-06-06T00:02:05.117Z,17.43
2023-06-06T00:03:05.101Z,17.39
2023-06-06T00:04:05.106Z,17.53
2023-06-06T00:05:04.886Z,17.67
2023-06-06T00:06:04.813Z,17.70
2023-06-06T00:07:04.742Z,17.84
2023-06-06T00:08:04.658Z,17.73
2023-06-06T00:09:04.594Z,17.67
2023-06-06T00:10:04.504Z,17.66
2023-06-06T00:11:04.428Z,17.57
2023-06-06T00:12:04.356Z,17.44
2023-06-06T00:13:04.280Z,17.33
2023-06-06T00:14:04.205Z,17.20
2023-06-06T00:15:04.125Z,17.20
2023-06-06T00:16:04.057Z,17.07
2023-06-06T00:17:03.968Z,17.03
2023-06-06T00:18:04.056Z,16.96
2023-06-06T00:19:11.097Z,16.81
2023-06-06T00:20:06.360Z,16.80
2023-06-06T00:21:03.665Z,16.73
2023-06-06T00:22:03.588Z,16.67
2023-06-06T00:23:03.509Z,16.57
2023-06-06T00:24:03.463Z,16.37
2023-06-06T00:25:03.353Z,16.27
2023-06-06T00:26:03.304Z,16.26
2023-06-06T00:27:03.231Z,16.10
2023-06-06T00:28:03.124Z,16.08
2023-06-06T00:29:03.049Z,15.94
2023-06-06T00:30:02.971Z,15.91
2023-06-06T00:31:02.900Z,15.82
2023-06-06T00:32:03.045Z,15.71
2023-06-06T00:33:02.783Z,15.61
2023-06-06T00:34:02.720Z,15.63
2023-06-06T00:35:02.607Z,15.42
2023-06-06T00:36:02.511Z,15.46
2023-06-06T00:37:02.441Z,15.18
2023-06-06T00:38:02.362Z,15.16
2023-06-06T00:39:02.294Z,15.12
2023-06-06T00:40:02.209Z,15.12
2023-06-06T00:41:02.135Z,15.10
2023-06-06T00:42:02.055Z,14.98
2023-06-06T00:43:01.975Z,14.95
2023-06-06T00:44:01.898Z,14.87
2023-06-06T00:45:01.811Z,14.91
2023-06-06T00:46:01.770Z,14.72
2023-06-06T00:47:01.663Z,14.60
2023-06-06T00:48:01.678Z,14.56
2023-06-06T00:49:01.502Z,14.46
2023-06-06T00:50:01.685Z,14.42
2023-06-06T00:51:01.379Z,14.38
2023-06-06T00:52:01.274Z,14.32
2023-06-06T00:53:01.194Z,14.35
2023-06-06T00:54:01.140Z,14.41
2023-06-06T00:55:01.036Z,14.32
2023-06-06T00:56:00.963Z,14.29
2023-06-06T00:57:00.893Z,14.28
2023-06-06T00:58:00.806Z,14.21
2023-06-06T00:59:00.726Z,14.11
2023-06-06T01:00:00.666Z,14.13
2023-06-06T01:01:00.629Z,14.11
2023-06-06T01:02:00.493Z,14.10
2023-06-06T01:03:00.475Z,14.13
2023-06-06T01:04:00.332Z,14.14
2023-06-06T01:05:00.262Z,14.24
2023-06-06T01:06:00.201Z,14.13
2023-06-06T01:07:00.157Z,14.10
2023-06-06T01:08:00.022Z,14.03
2023-06-06T01:08:59.948Z,13.95
2023-06-06T01:10:00.085Z,14.01
2023-06-06T01:10:59.862Z,13.98
2023-06-06T01:11:59.715Z,13.98
2023-06-06T01:13:00.036Z,13.92
2023-06-06T01:13:59.550Z,13.94
2023-06-06T01:14:59.707Z,13.95
2023-06-06T01:15:59.637Z,13.81
2023-06-06T01:16:59.328Z,13.84
2023-06-06T01:17:59.292Z,13.83
2023-06-06T01:18:59.311Z,13.78
2023-06-06T01:19:59.079Z,13.80
2023-06-06T01:20:58.999Z,13.73
2023-06-06T01:21:58.924Z,13.77
2023-06-06T01:22:58.868Z,13.76
2023-06-06T01:23:58.831Z,13.76
2023-06-06T01:24:58.689Z,13.74
2023-06-06T01:25:58.618Z,13.66
2023-06-06T01:26:58.527Z,13.68
2023-06-06T01:27:58.449Z,13.65
2023-06-06T01:28:58.381Z,13.63
2023-06-06T01:29:58.326Z,13.65
2023-06-06T01:30:58.233Z,13.58
2023-06-06T01:31:58.137Z,13.52
2023-06-06T01:32:58.078Z,13.56
2023-06-06T01:33:57.976Z,13.53
2023-06-06T01:34:57.898Z,13.53
2023-06-06T01:35:57.818Z,13.53
2023-06-06T01:36:57.745Z,13.58
2023-06-06T01:37:57.662Z,13.50
2023-06-06T01:38:57.622Z,13.44
2023-06-06T01:39:57.505Z,13.44
2023-06-06T01:40:57.427Z,13.45
2023-06-06T01:41:57.352Z,13.56
2023-06-06T01:42:57.268Z,13.55
2023-06-06T01:43:57.441Z,13.53
2023-06-06T01:44:57.108Z,13.50
2023-06-06T01:45:57.029Z,13.50
2023-06-06T01:46:57.037Z,13.44
2023-06-06T01:47:56.893Z,13.41
2023-06-06T01:48:56.797Z,13.45
2023-06-06T01:49:56.713Z,13.45
2023-06-06T01:50:56.638Z,13.43
2023-06-06T01:51:56.554Z,13.44
2023-06-06T01:52:56.538Z,13.43
2023-06-06T01:53:56.396Z,13.27
2023-06-06T01:54:56.336Z,13.24
2023-06-06T01:55:56.251Z,13.17
2023-06-06T01:56:56.157Z,13.22
2023-06-06T01:57:56.093Z,13.27
2023-06-06T01:58:56.208Z,13.32
2023-06-06T01:59:55.928Z,13.37
2023-06-06T02:00:55.865Z,13.44
2023-06-06T02:01:55.764Z,13.36
2023-06-06T02:02:55.839Z,13.41
2023-06-06T02:03:55.653Z,13.43
2023-06-06T02:04:55.826Z,13.40
2023-06-06T02:05:55.453Z,13.43
2023-06-06T02:06:55.367Z,13.45
2023-06-06T02:07:55.291Z,13.47
2023-06-06T02:08:55.213Z,13.45
2023-06-06T02:09:55.136Z,13.43
2023-06-06T02:10:55.077Z,13.38
2023-06-06T02:11:54.976Z,13.47
2023-06-06T02:12:54.894Z,13.44
2023-06-06T02:13:54.818Z,13.48
2023-06-06T02:14:54.741Z,13.45
2023-06-06T02:15:54.656Z,13.45
2023-06-06T02:16:54.641Z,13.41
2023-06-06T02:17:54.686Z,13.45
2023-06-06T02:18:54.425Z,13.40
2023-06-06T02:19:54.349Z,13.41
2023-06-06T02:20:54.263Z,13.41
2023-06-06T02:21:54.185Z,13.43
2023-06-06T02:22:54.109Z,13.41
2023-06-06T02:23:54.099Z,13.41
2023-06-06T02:24:53.959Z,13.41
2023-06-06T02:25:53.869Z,13.41
2023-06-06T02:26:53.807Z,13.38
2023-06-06T02:27:53.710Z,13.28
2023-06-06T02:28:53.692Z,13.22
2023-06-06T02:29:53.560Z,13.24
2023-06-06T02:30:53.492Z,13.19
2023-06-06T02:31:53.401Z,13.21
2023-06-06T02:32:53.323Z,13.21
2023-06-06T02:33:53.234Z,13.19
2023-06-06T02:34:53.153Z,13.29
2023-06-06T02:35:53.075Z,13.29
2023-06-06T02:36:52.999Z,13.27
2023-06-06T02:37:52.926Z,13.25
2023-06-06T02:38:53.337Z,13.14
2023-06-06T02:39:52.761Z,13.18
2023-06-06T02:40:52.684Z,13.22
2023-06-06T02:41:52.606Z,13.07
2023-06-06T02:42:52.742Z,13.09
2023-06-06T02:43:52.444Z,13.04
2023-06-06T02:44:52.561Z,13.06
2023-06-06T02:45:52.371Z,13.04
2023-06-06T02:46:52.211Z,12.84
2023-06-06T02:47:52.195Z,12.92
2023-06-06T02:48:52.049Z,12.88
2023-06-06T02:49:51.968Z,12.91
2023-06-06T02:50:51.895Z,12.85
2023-06-06T02:51:51.812Z,12.84
2023-06-06T02:52:51.730Z,12.85
2023-06-06T02:53:51.661Z,12.81
2023-06-06T02:54:51.572Z,12.81
2023-06-06T02:55:51.488Z,12.78
2023-06-06T02:56:51.421Z,12.79
2023-06-06T02:57:51.349Z,12.71
2023-06-06T02:58:51.278Z,12.71
2023-06-06T02:59:51.175Z,12.70
2023-06-06T03:00:51.096Z,12.71
2023-06-06T03:01:51.023Z,12.74
2023-06-06T03:02:50.996Z,12.79
2023-06-06T03:03:50.890Z,12.74
2023-06-06T03:04:50.779Z,12.70
2023-06-06T03:05:51.054Z,12.74
2023-06-06T03:06:50.617Z,12.78
2023-06-06T03:07:50.542Z,12.70
2023-06-06T03:08:50.459Z,12.67
2023-06-06T03:09:50.440Z,12.61
2023-06-06T03:10:50.297Z,12.61
2023-06-06T03:11:50.226Z,12.63
2023-06-06T03:12:50.146Z,12.56
2023-06-06T03:13:50.061Z,12.49
2023-06-06T03:14:57.634Z,12.46
2023-06-06T03:15:49.938Z,12.53
2023-06-06T03:16:49.818Z,12.49
2023-06-06T03:17:49.854Z,12.49
2023-06-06T03:18:49.662Z,12.51
2023-06-06T03:19:49.586Z,12.51
2023-06-06T03:20:49.509Z,12.45
2023-06-06T03:21:49.431Z,12.45
2023-06-06T03:22:49.354Z,12.51
2023-06-06T03:23:49.280Z,12.42
2023-06-06T03:24:49.190Z,12.44
2023-06-06T03:25:49.104Z,12.44
2023-06-06T03:26:49.026Z,12.44
2023-06-06T03:27:48.947Z,12.41
2023-06-06T03:28:48.890Z,12.37
2023-06-06T03:29:49.344Z,12.34
2023-06-06T03:30:48.769Z,12.41
2023-06-06T03:31:48.671Z,12.31
2023-06-06T03:32:48.598Z,12.41
2023-06-06T03:33:48.867Z,12.33
2023-06-06T03:34:48.388Z,12.44
2023-06-06T03:35:48.308Z,12.27
2023-06-06T03:36:48.225Z,12.41
2023-06-06T03:37:48.148Z,12.44
2023-06-06T03:38:48.080Z,12.30
2023-06-06T03:39:47.988Z,12.42
2023-06-06T03:40:48.264Z,12.34
2023-06-06T03:41:47.832Z,12.37
2023-06-06T03:42:47.855Z,12.45
2023-06-06T03:43:47.670Z,12.41
2023-06-06T03:44:47.589Z,12.45
2023-06-06T03:45:47.535Z,12.44
2023-06-06T03:46:47.850Z,12.53
2023-06-06T03:47:47.390Z,12.49
2023-06-06T03:48:47.267Z,12.45
2023-06-06T03:49:47.188Z,12.63
2023-06-06T03:50:49.610Z,12.51
2023-06-06T03:51:47.061Z,12.61
2023-06-06T03:52:46.957Z,12.61
2023-06-06T03:53:46.870Z,12.71
2023-06-06T03:54:46.786Z,12.64
2023-06-06T03:55:46.708Z,12.60
2023-06-06T03:56:46.626Z,12.77
2023-06-06T03:57:46.551Z,12.77
2023-06-06T03:58:46.471Z,12.73
2023-06-06T03:59:46.388Z,12.74
2023-06-06T04:00:46.307Z,12.77
2023-06-06T04:01:46.241Z,12.67
2023-06-06T04:02:46.270Z,12.78
2023-06-06T04:03:46.194Z,12.84
2023-06-06T04:04:46.035Z,12.73
2023-06-06T04:05:45.911Z,12.67
2023-06-06T04:06:45.823Z,12.73
2023-06-06T04:07:45.750Z,12.63
2023-06-06T04:08:45.680Z,12.67
2023-06-06T04:09:45.588Z,12.71
2023-06-06T04:10:45.503Z,12.70
2023-06-06T04:11:45.474Z,12.71
2023-06-06T04:12:45.351Z,12.70
2023-06-06T04:13:45.265Z,12.78
2023-06-06T04:14:45.183Z,12.71
2023-06-06T04:15:45.150Z,12.81
2023-06-06T04:16:45.028Z,12.71
2023-06-06T04:17:45.060Z,12.71
2023-06-06T04:18:44.892Z,12.85
2023-06-06T04:19:44.804Z,12.82
2023-06-06T04:20:44.710Z,12.86
2023-06-06T04:21:44.640Z,12.88
2023-06-06T04:22:44.621Z,12.94
2023-06-06T04:23:44.925Z,13.02
2023-06-06T04:24:44.397Z,13.06
2023-06-06T04:25:44.310Z,13.03
2023-06-06T04:26:44.235Z,13.10
2023-06-06T04:27:44.157Z,13.06
2023-06-06T04:28:44.073Z,13.09
2023-06-06T04:29:43.994Z,13.11
2023-06-06T04:30:43.913Z,13.14
2023-06-06T04:31:43.948Z,13.03
2023-06-06T04:32:43.803Z,13.07
2023-06-06T04:33:43.679Z,13.04
2023-06-06T04:34:43.623Z,13.25
2023-06-06T04:35:43.566Z,13.24
2023-06-06T04:36:43.437Z,13.27
2023-06-06T04:37:43.368Z,13.21
2023-06-06T04:38:43.279Z,13.21
2023-06-06T04:39:43.194Z,13.22
2023-06-06T04:41:01.132Z,13.21
2023-06-06T04:42:42.964Z,13.27
2023-06-06T04:43:42.880Z,13.25
2023-06-06T04:44:42.952Z,13.44
2023-06-06T04:45:42.724Z,13.53
2023-06-06T04:46:42.703Z,13.59
2023-06-06T04:47:42.567Z,13.59
2023-06-06T04:48:42.485Z,13.62
2023-06-06T04:49:42.404Z,13.65
2023-06-06T04:50:42.345Z,13.76
2023-06-06T04:51:42.348Z,13.87
2023-06-06T04:52:42.169Z,13.86
2023-06-06T04:53:42.097Z,13.87
2023-06-06T04:54:42.014Z,13.81
2023-06-06T04:55:41.932Z,13.94
2023-06-06T04:56:41.858Z,13.94
2023-06-06T04:57:41.803Z,14.01
2023-06-06T04:58:41.696Z,13.94
2023-06-06T04:59:41.618Z,14.05
2023-06-06T05:00:41.612Z,14.13
2023-06-06T05:01:41.460Z,14.11
2023-06-06T05:02:41.422Z,14.05
2023-06-06T05:03:41.337Z,14.10
2023-06-06T05:04:41.226Z,14.24
2023-06-06T05:05:41.154Z,14.29
2023-06-06T05:06:41.096Z,14.29
2023-06-06T05:07:40.992Z,14.36
2023-06-06T05:08:40.956Z,14.31
2023-06-06T05:09:40.953Z,14.41
2023-06-06T05:10:40.800Z,14.34
2023-06-06T05:11:40.677Z,14.41
2023-06-06T05:12:40.756Z,14.36
2023-06-06T05:13:40.522Z,14.36
2023-06-06T05:14:40.444Z,14.44
2023-06-06T05:16:40.353Z,14.59
2023-06-06T05:17:40.495Z,14.56
2023-06-06T05:18:40.618Z,14.57
2023-06-06T05:19:40.258Z,14.64
2023-06-06T05:21:40.133Z,14.71
2023-06-06T05:22:40.565Z,14.75
2023-06-06T05:23:39.804Z,14.78
2023-06-06T05:24:39.712Z,14.74
2023-06-06T05:25:39.622Z,14.85
2023-06-06T05:26:39.512Z,14.83
2023-06-06T05:27:39.438Z,14.84
2023-06-06T05:28:39.368Z,14.87
2023-06-06T05:29:39.410Z,14.85
2023-06-06T05:30:39.537Z,14.95
2023-06-06T05:31:39.212Z,15.01
2023-06-06T05:32:39.076Z,15.05
2023-06-06T05:33:38.968Z,15.02
2023-06-06T05:34:38.894Z,15.13
2023-06-06T05:35:39.040Z,15.08
2023-06-06T05:36:38.770Z,15.15
2023-06-06T05:38:39.321Z,15.16
2023-06-06T05:39:38.535Z,15.28
2023-06-06T05:40:38.425Z,15.39
2023-06-06T05:41:38.346Z,15.33
2023-06-06T05:43:38.228Z,15.41
2023-06-06T05:44:38.154Z,15.52
2023-06-06T05:45:38.028Z,15.61
2023-06-06T05:46:37.978Z,15.63
2023-06-06T05:47:38.130Z,15.67
2023-06-06T05:48:37.837Z,15.70
2023-06-06T05:49:38.394Z,15.85
2023-06-06T05:50:37.643Z,15.76
2023-06-06T05:51:37.562Z,15.88
2023-06-06T05:52:37.486Z,15.91
2023-06-06T05:53:37.409Z,15.99
2023-06-06T05:54:49.698Z,16.04
2023-06-06T05:55:37.256Z,16.04
2023-06-06T05:56:37.181Z,16.08
2023-06-06T05:57:37.102Z,16.16
2023-06-06T05:58:41.673Z,16.10
2023-06-06T05:59:36.950Z,16.27
2023-06-06T06:00:37.073Z,16.34
2023-06-06T06:01:36.792Z,16.29
2023-06-06T06:02:36.835Z,16.50
2023-06-06T06:03:36.681Z,16.50
2023-06-06T06:04:36.658Z,16.63
2023-06-06T06:05:37.511Z,16.65
2023-06-06T06:06:37.828Z,16.73
2023-06-06T06:07:36.333Z,16.80
2023-06-06T06:08:36.258Z,16.88
2023-06-06T06:09:36.180Z,16.95
2023-06-06T06:10:36.123Z,16.98
2023-06-06T06:11:36.023Z,17.11
2023-06-06T06:12:35.948Z,17.18
2023-06-06T06:13:35.872Z,17.20
2023-06-06T06:14:35.801Z,17.21
2023-06-06T06:15:35.725Z,17.29
2023-06-06T06:16:35.752Z,17.20
2023-06-06T06:17:35.589Z,17.26
2023-06-06T06:18:35.488Z,17.35
2023-06-06T06:19:35.764Z,17.29
2023-06-06T06:20:35.348Z,17.46
2023-06-06T06:21:35.264Z,17.55
2023-06-06T06:22:35.186Z,17.66
2023-06-06T06:23:35.149Z,17.74
2023-06-06T06:24:35.048Z,17.77
2023-06-06T06:25:34.961Z,17.84
2023-06-06T06:26:35.320Z,17.87
2023-06-06T06:27:34.809Z,17.91
2023-06-06T06:28:34.934Z,17.98
2023-06-06T06:29:34.655Z,18.03
2023-06-06T06:30:34.585Z,18.11
2023-06-06T06:31:34.629Z,18.24
2023-06-06T06:32:34.455Z,18.21
2023-06-06T06:33:34.414Z,18.19
2023-06-06T06:34:34.276Z,18.28
2023-06-06T06:35:34.207Z,18.37
2023-06-06T06:36:34.134Z,18.43
2023-06-06T06:37:34.049Z,18.47
2023-06-06T06:38:33.980Z,18.57
2023-06-06T06:39:33.905Z,18.65
2023-06-06T06:40:33.885Z,18.80
2023-06-06T06:42:21.753Z,18.84
2023-06-06T06:43:21.167Z,18.97
2023-06-06T06:44:21.085Z,18.95
2023-06-06T06:45:21.018Z,19.01
2023-06-06T06:46:21.467Z,19.17
2023-06-06T06:48:28.362Z,19.18
2023-06-06T06:49:28.298Z,19.35
2023-06-06T06:50:28.301Z,19.40
2023-06-06T06:51:28.142Z,19.48
2023-06-06T06:52:28.058Z,19.42
2023-06-06T06:53:27.987Z,19.63
2023-06-06T06:54:27.918Z,19.69
2023-06-06T06:55:27.832Z,19.69
2023-06-06T06:56:27.845Z,19.73
2023-06-06T06:57:27.798Z,19.78
2023-06-06T06:58:27.618Z,19.78
2023-06-06T06:59:27.537Z,19.94
2023-06-06T07:00:27.500Z,19.97
2023-06-06T07:01:27.442Z,20.00
2023-06-06T07:02:27.321Z,19.91
2023-06-06T07:03:27.233Z,19.93
2023-06-06T07:04:27.181Z,19.90
2023-06-06T07:05:27.218Z,19.94
2023-06-06T07:06:27.563Z,19.95
2023-06-06T07:07:26.937Z,20.09
2023-06-06T07:08:26.863Z,20.09
2023-06-06T07:09:26.890Z,20.16
2023-06-06T07:10:26.817Z,20.24
2023-06-06T07:11:26.637Z,20.18
2023-06-06T07:12:26.560Z,20.24
2023-06-06T07:13:26.507Z,20.30
2023-06-06T07:14:26.414Z,20.40
2023-06-06T07:15:26.340Z,20.42
2023-06-06T07:16:26.282Z,20.46
2023-06-06T07:17:26.232Z,20.54
2023-06-06T07:18:26.136Z,20.54
2023-06-06T07:19:26.039Z,20.59
2023-06-06T07:20:26.107Z,20.68
2023-06-06T07:21:25.891Z,20.72
2023-06-06T07:22:25.822Z,20.69
2023-06-06T07:23:25.771Z,20.68
2023-06-06T07:24:25.817Z,20.68
2023-06-06T07:25:25.604Z,20.65
2023-06-06T07:26:25.521Z,20.72
2023-06-06T07:27:25.507Z,20.59
2023-06-06T07:28:25.372Z,20.61
2023-06-06T07:29:25.325Z,20.82
2023-06-06T07:30:25.224Z,20.84
2023-06-06T07:31:25.167Z,20.89
2023-06-06T07:32:25.121Z,20.96
2023-06-06T07:33:24.999Z,20.96
2023-06-06T07:34:24.947Z,20.90
2023-06-06T07:35:24.859Z,20.89
2023-06-06T07:37:24.703Z,20.93
2023-06-06T07:38:24.646Z,20.93
2023-06-06T07:39:24.562Z,20.99
2023-06-06T07:40:24.503Z,21.17
2023-06-06T07:41:24.409Z,21.24
2023-06-06T07:42:24.347Z,21.44
2023-06-06T07:43:24.262Z,21.53
2023-06-06T07:44:24.188Z,21.60
2023-06-06T07:45:24.280Z,21.54
2023-06-06T07:46:24.067Z,21.54
2023-06-06T07:47:23.981Z,21.51
2023-06-06T07:48:23.989Z,21.57
2023-06-06T07:49:23.813Z,21.48
2023-06-06T07:50:23.782Z,21.46
2023-06-06T07:51:23.669Z,21.49
2023-06-06T07:52:23.597Z,21.61
2023-06-06T07:53:23.522Z,21.72
2023-06-06T07:54:23.449Z,21.89
2023-06-06T07:55:23.635Z,21.92
2023-06-06T07:56:23.304Z,22.12
2023-06-06T07:57:23.231Z,22.17
2023-06-06T07:58:23.154Z,22.34
2023-06-06T07:59:23.086Z,22.35
2023-06-06T08:00:23.005Z,22.31
2023-06-06T08:01:23.200Z,22.28
2023-06-06T08:02:22.992Z,22.23
2023-06-06T08:03:22.872Z,22.26
2023-06-06T08:04:22.725Z,22.24
2023-06-06T08:05:22.830Z,22.16
2023-06-06T08:06:23.016Z,22.24
2023-06-06T08:07:22.494Z,22.30
2023-06-06T08:08:22.425Z,22.23
2023-06-06T08:09:22.346Z,22.31
2023-06-06T08:10:22.555Z,22.20
2023-06-06T08:11:22.205Z,22.13
2023-06-06T08:12:22.125Z,22.30
2023-06-06T08:13:22.053Z,22.26
2023-06-06T08:14:21.984Z,22.34
2023-06-06T08:15:21.905Z,22.54
2023-06-06T08:16:21.889Z,22.54
2023-06-06T08:17:21.904Z,22.47
2023-06-06T08:19:24.188Z,22.37
2023-06-06T08:20:24.153Z,22.23
2023-06-06T08:21:24.040Z,22.32
2023-06-06T08:22:24.320Z,22.42
2023-06-06T08:23:23.921Z,22.41
2023-06-06T08:24:23.826Z,22.46
2023-06-06T08:25:23.764Z,22.54
2023-06-06T08:26:23.692Z,22.49
2023-06-06T08:27:23.619Z,22.54
2023-06-06T08:28:23.573Z,22.54
2023-06-06T08:29:23.456Z,22.50
2023-06-06T08:30:23.465Z,22.57
2023-06-06T08:31:23.328Z,22.49
2023-06-06T08:32:23.255Z,22.71
2023-06-06T08:33:23.288Z,22.72
2023-06-06T08:34:23.103Z,22.77
2023-06-06T08:35:23.314Z,22.77
2023-06-06T08:36:23.049Z,22.83
2023-06-06T08:37:22.924Z,22.86
2023-06-06T08:38:22.803Z,22.90
2023-06-06T08:39:22.738Z,22.97
2023-06-06T08:40:22.656Z,23.07
2023-06-06T08:41:22.583Z,23.15
2023-06-06T08:42:22.513Z,23.22
2023-06-06T08:44:04.925Z,23.26
2023-06-06T08:45:04.847Z,23.24
2023-06-06T08:46:04.785Z,23.18
2023-06-06T08:47:04.809Z,23.20
2023-06-06T08:48:05.776Z,23.11
2023-06-06T08:49:05.130Z,23.24
2023-06-06T08:50:04.585Z,23.12
2023-06-06T08:51:04.423Z,22.86
2023-06-06T08:52:04.343Z,22.93
2023-06-06T08:53:04.271Z,22.75
2023-06-06T08:54:04.201Z,22.83
2023-06-06T08:55:04.133Z,22.89
2023-06-06T08:56:04.302Z,23.02
2023-06-06T08:57:03.978Z,23.12
2023-06-06T08:58:03.915Z,23.22
2023-06-06T08:59:03.868Z,23.20
2023-06-06T09:00:03.760Z,23.31
2023-06-06T09:01:03.690Z,23.42
2023-06-06T09:02:03.774Z,23.38
2023-06-06T09:03:03.607Z,23.46
2023-06-06T09:04:03.522Z,23.45
2023-06-06T09:05:03.528Z,23.56
2023-06-06T09:06:03.326Z,23.63
2023-06-06T09:07:03.275Z,23.53
2023-06-06T09:08:03.181Z,23.42
2023-06-06T09:09:03.113Z,23.31
2023-06-06T09:10:05.659Z,23.17
2023-06-06T09:11:02.991Z,23.11
2023-06-06T09:12:02.891Z,23.11
2023-06-06T09:14:02.788Z,23.34
2023-06-06T09:15:02.713Z,23.24
2023-06-06T09:16:02.641Z,23.22
2023-06-06T09:17:05.764Z,23.24
2023-06-06T09:18:02.488Z,23.38
2023-06-06T09:19:02.393Z,23.60
2023-06-06T09:20:02.324Z,23.65
2023-06-06T09:21:02.482Z,23.79
2023-06-06T09:22:02.165Z,23.71
2023-06-06T09:23:02.143Z,23.60
2023-06-06T09:24:02.500Z,23.56
2023-06-06T09:25:02.005Z,23.65
2023-06-06T09:26:01.874Z,23.65
2023-06-06T09:27:01.804Z,23.42
2023-06-06T09:28:01.890Z,23.42
2023-06-06T09:29:01.659Z,23.43
2023-06-06T09:30:01.584Z,23.40
2023-06-06T09:31:01.529Z,23.53
2023-06-06T09:32:01.541Z,23.56
2023-06-06T09:33:01.502Z,23.68
2023-06-06T09:34:01.389Z,23.52
2023-06-06T09:35:01.229Z,23.61
2023-06-06T09:36:01.154Z,23.61
2023-06-06T09:37:01.265Z,23.80
2023-06-06T09:38:01.065Z,23.82
2023-06-06T09:39:00.934Z,23.80
2023-06-06T09:40:00.962Z,23.83
2023-06-06T09:41:00.792Z,23.86
2023-06-06T09:42:00.728Z,23.80
2023-06-06T09:43:00.651Z,23.75
2023-06-06T09:44:00.769Z,23.79
2023-06-06T09:45:00.609Z,23.87
2023-06-06T09:46:00.736Z,23.93
2023-06-06T09:47:00.421Z,23.90
2023-06-06T09:48:00.307Z,23.92
2023-06-06T09:49:00.471Z,23.78
2023-06-06T09:50:00.211Z,23.70
2023-06-06T09:51:00.063Z,23.53
2023-06-06T09:51:59.990Z,23.46
2023-06-06T09:53:00.109Z,23.42
2023-06-06T09:53:59.850Z,23.35
2023-06-06T09:54:59.790Z,23.63
2023-06-06T09:55:59.732Z,23.75
2023-06-06T09:56:59.743Z,23.78
2023-06-06T09:57:59.569Z,23.68
2023-06-06T09:59:01.574Z,23.56
2023-06-06T09:59:59.421Z,23.61
2023-06-06T10:00:59.342Z,23.65
2023-06-06T10:01:59.336Z,23.80
2023-06-06T10:02:59.733Z,23.79
2023-06-06T10:03:59.659Z,23.83
2023-06-06T10:04:59.211Z,23.86
2023-06-06T10:05:59.001Z,24.04
2023-06-06T10:06:58.906Z,24.17
2023-06-06T10:07:58.848Z,24.25
2023-06-06T10:08:59.008Z,24.38
2023-06-06T10:09:59.074Z,24.41
2023-06-06T10:10:58.617Z,24.40
2023-06-06T10:11:58.551Z,24.35
2023-06-06T10:12:58.481Z,24.35
2023-06-06T10:13:58.454Z,24.37
2023-06-06T10:14:58.331Z,24.02
2023-06-06T10:15:58.276Z,24.10
2023-06-06T10:16:58.215Z,24.22
2023-06-06T10:17:58.220Z,24.25
2023-06-06T10:18:58.064Z,24.45
2023-06-06T10:19:57.993Z,24.38
2023-06-06T10:20:57.897Z,24.45
2023-06-06T10:21:57.938Z,24.53
2023-06-06T10:22:57.774Z,24.56
2023-06-06T10:23:57.703Z,24.69
2023-06-06T10:24:57.932Z,24.80
2023-06-06T10:25:57.536Z,24.63
2023-06-06T10:26:57.539Z,24.53
2023-06-06T10:27:57.413Z,24.75
2023-06-06T10:28:57.326Z,24.91
2023-06-06T10:29:57.306Z,25.20
2023-06-06T10:30:57.200Z,25.30
2023-06-06T10:31:57.258Z,25.31
2023-06-06T10:32:57.099Z,25.16
2023-06-06T10:33:56.966Z,24.91
2023-06-06T10:34:56.896Z,24.83
2023-06-06T10:35:56.833Z,24.79
2023-06-06T10:36:56.747Z,24.82
2023-06-06T10:37:56.701Z,24.75
2023-06-06T10:38:56.622Z,24.73
2023-06-06T10:39:56.534Z,24.79
2023-06-06T10:40:57.648Z,24.80
2023-06-06T10:41:56.397Z,24.88
2023-06-06T10:42:56.321Z,24.91
2023-06-06T10:43:56.264Z,24.86
2023-06-06T10:44:56.188Z,24.75
2023-06-06T10:45:56.110Z,24.48
2023-06-06T10:46:56.062Z,24.57
2023-06-06T10:47:56.047Z,24.47
2023-06-06T10:48:55.906Z,24.32
2023-06-06T10:49:55.822Z,24.45
2023-06-06T10:50:55.772Z,24.37
2023-06-06T10:51:55.705Z,24.30
2023-06-06T10:52:55.637Z,24.10
2023-06-06T10:53:55.546Z,24.01
2023-06-06T10:54:55.487Z,24.02
2023-06-06T10:55:55.475Z,23.95
2023-06-06T10:56:55.391Z,23.89
2023-06-06T10:57:55.276Z,23.83
2023-06-06T10:58:55.197Z,24.10
2023-06-06T10:59:55.297Z,24.29
2023-06-06T11:00:55.121Z,24.47
2023-06-06T11:01:55.047Z,24.76
2023-06-06T11:02:54.963Z,24.95
2023-06-06T11:03:55.009Z,25.08
2023-06-06T11:04:54.747Z,25.08
2023-06-06T11:05:54.678Z,25.19
2023-06-06T11:06:54.686Z,25.28
2023-06-06T11:07:54.553Z,25.35
2023-06-06T11:08:54.477Z,25.31
2023-06-06T11:09:54.397Z,25.52
2023-06-06T11:10:54.473Z,25.65
2023-06-06T11:11:54.719Z,25.75
2023-06-06T11:12:54.235Z,25.86
2023-06-06T11:13:54.126Z,25.93
2023-06-06T11:14:54.046Z,25.89
2023-06-06T11:15:53.963Z,26.01
2023-06-06T11:16:54.003Z,25.60
2023-06-06T11:17:53.865Z,25.40
2023-06-06T11:18:53.750Z,25.30
2023-06-06T11:19:54.396Z,25.23
2023-06-06T11:20:53.663Z,25.40
2023-06-06T11:22:53.812Z,25.37
2023-06-06T11:23:53.440Z,25.62
2023-06-06T11:24:53.333Z,25.65
2023-06-06T11:25:53.261Z,25.47
2023-06-06T11:26:53.380Z,25.42
2023-06-06T11:27:53.185Z,25.35
2023-06-06T11:28:53.179Z,25.15
2023-06-06T11:29:52.994Z,25.31
2023-06-06T11:30:53.147Z,25.42
2023-06-06T11:31:53.009Z,25.84
2023-06-06T11:32:52.840Z,25.99
2023-06-06T11:33:52.695Z,25.83
2023-06-06T11:34:52.884Z,25.94
2023-06-06T11:35:52.594Z,26.12
2023-06-06T11:36:52.526Z,26.30
2023-06-06T11:37:52.440Z,26.50
2023-06-06T11:38:52.337Z,26.79
2023-06-06T11:39:52.278Z,27.20
2023-06-06T11:40:52.200Z,27.29
2023-06-06T11:41:52.164Z,27.46
2023-06-06T11:42:52.100Z,27.36
2023-06-06T11:43:52.040Z,27.87
2023-06-06T11:44:52.018Z,28.25
2023-06-06T11:45:51.869Z,28.36
2023-06-06T11:46:51.885Z,28.54
2023-06-06T11:47:58.066Z,28.19
2023-06-06T11:48:55.491Z,27.88
2023-06-06T11:49:51.592Z,28.26
2023-06-06T11:50:51.525Z,27.70
2023-06-06T11:51:51.464Z,27.24
2023-06-06T11:52:51.389Z,27.05
2023-06-06T11:53:51.333Z,26.67
2023-06-06T11:54:51.266Z,26.38
2023-06-06T11:56:51.332Z,26.50
2023-06-06T11:57:51.064Z,26.97
2023-06-06T11:58:51.003Z,27.38
2023-06-06T12:00:51.203Z,28.02
2023-06-06T12:02:50.852Z,27.74
2023-06-06T12:03:50.770Z,27.42
2023-06-06T12:04:50.623Z,26.98
2023-06-06T12:05:50.569Z,26.21
2023-06-06T12:06:50.464Z,25.90
2023-06-06T12:07:50.903Z,26.12
2023-06-06T12:08:50.332Z,27.14
2023-06-06T12:09:50.671Z,28.10
2023-06-06T12:10:50.198Z,28.71
2023-06-06T12:11:50.136Z,28.66
2023-06-06T12:12:50.071Z,29.16
2023-06-06T12:13:50.004Z,28.81
2023-06-06T12:14:49.938Z,28.50
2023-06-06T12:15:49.878Z,28.09
2023-06-06T12:16:49.858Z,27.69
2023-06-06T12:17:49.756Z,27.36
2023-06-06T12:18:49.675Z,26.95
2023-06-06T12:19:49.610Z,26.72
2023-06-06T12:20:49.870Z,26.52
2023-06-06T12:21:49.541Z,26.01
2023-06-06T12:22:49.413Z,25.90
2023-06-06T12:23:49.439Z,25.59
2023-06-06T12:24:51.904Z,25.53
2023-06-06T12:25:49.243Z,25.49
2023-06-06T12:26:49.148Z,25.53
2023-06-06T12:27:51.700Z,25.53
2023-06-06T12:28:49.010Z,25.62
2023-06-06T12:29:48.945Z,25.55
2023-06-06T12:30:48.874Z,25.64
2023-06-06T12:31:48.934Z,25.59
2023-06-06T12:32:48.841Z,25.45
2023-06-06T12:33:48.669Z,25.59
2023-06-06T12:34:48.609Z,25.78
2023-06-06T12:35:48.541Z,26.35
2023-06-06T12:36:48.468Z,27.35
2023-06-06T12:37:48.402Z,28.36
2023-06-06T12:38:48.333Z,28.78
2023-06-06T12:39:48.269Z,28.87
2023-06-06T12:40:48.205Z,29.25
2023-06-06T12:42:30.618Z,30.19
2023-06-06T12:43:31.957Z,30.43
2023-06-06T12:45:12.984Z,30.39
2023-06-06T12:46:13.250Z,30.57
2023-06-06T12:47:12.856Z,29.23
2023-06-06T12:48:16.246Z,29.28
2023-06-06T12:50:00.226Z,28.62
2023-06-06T12:51:00.412Z,28.19
2023-06-06T12:52:00.100Z,27.50
2023-06-06T12:53:00.187Z,27.29
2023-06-06T12:53:59.968Z,27.02
2023-06-06T12:54:59.915Z,26.43
2023-06-06T12:56:00.057Z,26.01
2023-06-06T12:56:59.778Z,25.82
2023-06-06T12:57:59.716Z,25.52
2023-06-06T12:58:59.692Z,25.28
2023-06-06T13:02:59.509Z,24.80
2023-06-06T13:04:00.300Z,24.79
2023-06-06T13:05:59.189Z,24.83
2023-06-06T13:06:59.115Z,24.86
2023-06-06T13:07:59.039Z,24.76
2023-06-06T13:08:59.017Z,24.62
2023-06-06T13:09:58.913Z,24.60
2023-06-06T13:10:58.829Z,24.66
2023-06-06T13:11:58.762Z,24.54